Camp Shelby, Mississippi
Current Conditions -  °F | °C
As of 7:53 PM on Monday 20 Oct 2014 (Local Time) from KHBG Reporting Station
Clear Clear  
Wind Chill: 61°   Ceiling: Unl
Heat Index: 61°   Visibility: 10mi
Dew Point: 55°   Wind: 0mph
Humidity: 81%   Direction: NA
Pressure: 30.03"   Gusts: NA
Location:  31.1996°N, 89.2694°W
Report Text: KHBG 210053Z AUTO 00000KT 10SM CLR 16/13 A3003 RMK AO2 SLP167 T01610128
Loading
Personal Weather Stations






























Interactive Weather Map
Tropical Storm Tracking
New forecast layout! Learn more

10-Day Weather Forecast

Advertisements
Track Severe Weather on mobile